sensor_id;sensor_type;location;lat;lon;timestamp;pressure;altitude;pressure_sealevel;temperature;humidity
50268;BME280;36153;50.960;6.220;2023-05-24T00:01:46;101370.13;;;13.29;50.42
50268;BME280;36153;50.960;6.220;2023-05-24T00:04:47;101369.94;;;13.15;50.28
50268;BME280;36153;50.960;6.220;2023-05-24T00:07:48;101376.09;;;13.17;50.76
50268;BME280;36153;50.960;6.220;2023-05-24T00:10:48;101383.22;;;13.29;50.43
50268;BME280;36153;50.960;6.220;2023-05-24T00:13:49;101385.63;;;13.15;50.90
50268;BME280;36153;50.960;6.220;2023-05-24T00:16:49;101380.66;;;13.30;50.52
50268;BME280;36153;50.960;6.220;2023-05-24T00:19:50;101386.56;;;13.20;50.65
50268;BME280;36153;50.960;6.220;2023-05-24T00:22:51;101377.69;;;13.07;51.34
50268;BME280;36153;50.960;6.220;2023-05-24T00:25:52;101377.50;;;12.95;51.89
50268;BME280;36153;50.960;6.220;2023-05-24T00:28:52;101381.13;;;13.05;51.62
50268;BME280;36153;50.960;6.220;2023-05-24T00:31:53;101379.25;;;12.96;51.59
50268;BME280;36153;50.960;6.220;2023-05-24T00:34:53;101378.63;;;13.12;51.50
50268;BME280;36153;50.960;6.220;2023-05-24T00:37:53;101378.59;;;13.11;51.28
50268;BME280;36153;50.960;6.220;2023-05-24T00:40:54;101373.31;;;13.08;51.17
50268;BME280;36153;50.960;6.220;2023-05-24T00:43:58;101367.06;;;12.98;51.34
50268;BME280;36153;50.960;6.220;2023-05-24T00:46:59;101370.88;;;13.19;51.00
50268;BME280;36153;50.960;6.220;2023-05-24T00:49:59;101371.88;;;13.27;50.92
50268;BME280;36153;50.960;6.220;2023-05-24T00:53:01;101369.25;;;13.27;50.84
50268;BME280;36153;50.960;6.220;2023-05-24T00:56:03;101372.41;;;13.04;51.11
50268;BME280;36153;50.960;6.220;2023-05-24T00:59:04;101367.19;;;13.04;51.26
50268;BME280;36153;50.960;6.220;2023-05-24T01:02:04;101369.81;;;13.06;51.28
50268;BME280;36153;50.960;6.220;2023-05-24T01:05:06;101364.41;;;12.93;51.35
50268;BME280;36153;50.960;6.220;2023-05-24T01:08:30;101367.38;;;12.63;52.24
50268;BME280;36153;50.960;6.220;2023-05-24T01:12:00;101365.56;;;12.59;52.39
50268;BME280;36153;50.960;6.220;2023-05-24T01:18:15;101372.22;;;12.41;52.96
50268;BME280;36153;50.960;6.220;2023-05-24T01:21:45;101372.19;;;12.40;53.57
50268;BME280;36153;50.960;6.220;2023-05-24T01:28:30;101380.06;;;12.41;53.46
50268;BME280;36153;50.960;6.220;2023-05-24T01:31:33;101371.44;;;12.45;53.08
50268;BME280;36153;50.960;6.220;2023-05-24T01:34:34;101379.31;;;12.47;53.14
50268;BME280;36153;50.960;6.220;2023-05-24T01:37:34;101367.94;;;12.43;52.84
50268;BME280;36153;50.960;6.220;2023-05-24T01:40:36;101373.16;;;12.43;52.93
50268;BME280;36153;50.960;6.220;2023-05-24T01:43:39;101362.69;;;12.43;52.81
50268;BME280;36153;50.960;6.220;2023-05-24T01:46:46;101360.38;;;12.11;52.69
50268;BME280;36153;50.960;6.220;2023-05-24T01:49:49;101357.50;;;11.98;53.68
50268;BME280;36153;50.960;6.220;2023-05-24T01:52:54;101356.56;;;11.94;53.83
50268;BME280;36153;50.960;6.220;2023-05-24T01:56:00;101352.97;;;11.89;53.86
50268;BME280;36153;50.960;6.220;2023-05-24T01:59:01;101355.34;;;11.78;54.24
50268;BME280;36153;50.960;6.220;2023-05-24T02:02:02;101353.28;;;11.61;54.36
50268;BME280;36153;50.960;6.220;2023-05-24T02:05:03;101359.16;;;11.51;54.66
50268;BME280;36153;50.960;6.220;2023-05-24T02:08:04;101356.44;;;11.48;54.77
50268;BME280;36153;50.960;6.220;2023-05-24T02:11:04;101353.81;;;11.47;55.30
50268;BME280;36153;50.960;6.220;2023-05-24T02:14:05;101358.16;;;11.46;55.31
50268;BME280;36153;50.960;6.220;2023-05-24T02:17:05;101351.31;;;11.50;55.41
50268;BME280;36153;50.960;6.220;2023-05-24T02:20:06;101348.03;;;11.60;55.43
50268;BME280;36153;50.960;6.220;2023-05-24T02:23:06;101348.88;;;11.59;55.21
50268;BME280;36153;50.960;6.220;2023-05-24T02:26:07;101348.19;;;11.68;55.27
50268;BME280;36153;50.960;6.220;2023-05-24T02:29:10;101337.06;;;11.76;55.06
50268;BME280;36153;50.960;6.220;2023-05-24T02:32:11;101334.63;;;11.43;55.65
50268;BME280;36153;50.960;6.220;2023-05-24T02:35:11;101339.25;;;11.56;55.41
50268;BME280;36153;50.960;6.220;2023-05-24T02:38:11;101330.53;;;11.54;55.36
50268;BME280;36153;50.960;6.220;2023-05-24T02:41:12;101334.00;;;11.55;55.30
50268;BME280;36153;50.960;6.220;2023-05-24T02:44:16;101332.25;;;11.54;55.07
50268;BME280;36153;50.960;6.220;2023-05-24T02:47:17;101337.41;;;11.52;55.19
50268;BME280;36153;50.960;6.220;2023-05-24T02:50:18;101329.41;;;11.41;55.07
50268;BME280;36153;50.960;6.220;2023-05-24T02:53:18;101336.28;;;11.39;55.28
50268;BME280;36153;50.960;6.220;2023-05-24T02:56:19;101338.13;;;11.43;55.43
50268;BME280;36153;50.960;6.220;2023-05-24T02:59:21;101333.81;;;11.44;55.49
50268;BME280;36153;50.960;6.220;2023-05-24T03:02:22;101340.50;;;11.34;55.60
50268;BME280;36153;50.960;6.220;2023-05-24T03:05:22;101336.91;;;11.27;55.44
50268;BME280;36153;50.960;6.220;2023-05-24T03:08:22;101333.38;;;11.25;55.78
50268;BME280;36153;50.960;6.220;2023-05-24T03:11:23;101340.31;;;11.23;55.68
50268;BME280;36153;50.960;6.220;2023-05-24T03:14:23;101335.03;;;11.20;55.82
50268;BME280;36153;50.960;6.220;2023-05-24T03:17:24;101333.25;;;11.19;55.93
50268;BME280;36153;50.960;6.220;2023-05-24T03:20:24;101332.34;;;11.19;55.82
50268;BME280;36153;50.960;6.220;2023-05-24T03:23:25;101335.69;;;11.12;55.80
50268;BME280;36153;50.960;6.220;2023-05-24T03:26:25;101331.31;;;11.10;55.52
50268;BME280;36153;50.960;6.220;2023-05-24T03:29:26;101328.69;;;11.10;55.70
50268;BME280;36153;50.960;6.220;2023-05-24T03:32:26;101335.50;;;11.02;56.33
50268;BME280;36153;50.960;6.220;2023-05-24T03:35:26;101334.56;;;11.00;56.34
50268;BME280;36153;50.960;6.220;2023-05-24T03:38:27;101324.13;;;11.00;56.37
50268;BME280;36153;50.960;6.220;2023-05-24T03:41:27;101332.94;;;11.05;56.27
50268;BME280;36153;50.960;6.220;2023-05-24T03:44:28;101329.06;;;10.88;57.31
50268;BME280;36153;50.960;6.220;2023-05-24T03:47:28;101342.25;;;10.94;57.20
50268;BME280;36153;50.960;6.220;2023-05-24T03:50:28;101332.75;;;10.98;56.81
50268;BME280;36153;50.960;6.220;2023-05-24T03:53:29;101348.66;;;11.08;57.07
50268;BME280;36153;50.960;6.220;2023-05-24T03:56:29;101347.09;;;11.17;56.81
50268;BME280;36153;50.960;6.220;2023-05-24T03:59:29;101351.59;;;11.24;56.67
50268;BME280;36153;50.960;6.220;2023-05-24T04:02:30;101352.59;;;11.29;56.51
50268;BME280;36153;50.960;6.220;2023-05-24T04:05:32;101347.44;;;11.32;56.62
50268;BME280;36153;50.960;6.220;2023-05-24T04:08:32;101356.28;;;11.39;56.69
50268;BME280;36153;50.960;6.220;2023-05-24T04:11:33;101355.56;;;11.46;56.61
50268;BME280;36153;50.960;6.220;2023-05-24T04:14:33;101357.41;;;11.52;56.10
50268;BME280;36153;50.960;6.220;2023-05-24T04:17:34;101350.56;;;11.55;56.38
50268;BME280;36153;50.960;6.220;2023-05-24T04:20:34;101359.06;;;11.48;56.62
50268;BME280;36153;50.960;6.220;2023-05-24T04:23:35;101369.63;;;11.54;56.80
50268;BME280;36153;50.960;6.220;2023-05-24T04:26:36;101373.09;;;11.53;56.64
50268;BME280;36153;50.960;6.220;2023-05-24T04:29:38;101375.66;;;11.52;56.64
50268;BME280;36153;50.960;6.220;2023-05-24T04:32:39;101370.72;;;11.64;56.91
50268;BME280;36153;50.960;6.220;2023-05-24T04:35:39;101375.94;;;11.64;56.48
50268;BME280;36153;50.960;6.220;2023-05-24T04:38:40;101373.22;;;11.58;55.37
50268;BME280;36153;50.960;6.220;2023-05-24T04:41:41;101379.31;;;11.60;55.66
50268;BME280;36153;50.960;6.220;2023-05-24T04:44:41;101378.59;;;11.67;56.66
50268;BME280;36153;50.960;6.220;2023-05-24T04:47:42;101372.84;;;11.84;56.99
50268;BME280;36153;50.960;6.220;2023-05-24T04:50:42;101369.47;;;11.88;56.63
50268;BME280;36153;50.960;6.220;2023-05-24T04:53:42;101375.94;;;12.05;56.75
50268;BME280;36153;50.960;6.220;2023-05-24T04:56:43;101384.75;;;12.13;56.42
50268;BME280;36153;50.960;6.220;2023-05-24T04:59:43;101386.69;;;12.22;56.44
50268;BME280;36153;50.960;6.220;2023-05-24T05:02:44;101378.19;;;12.34;56.27
50268;BME280;36153;50.960;6.220;2023-05-24T05:05:44;101379.31;;;12.47;56.07
50268;BME280;36153;50.960;6.220;2023-05-24T05:08:45;101389.13;;;12.62;55.93
50268;BME280;36153;50.960;6.220;2023-05-24T05:11:46;101395.19;;;12.59;55.81
50268;BME280;36153;50.960;6.220;2023-05-24T05:14:47;101394.53;;;12.73;55.59
50268;BME280;36153;50.960;6.220;2023-05-24T05:17:48;101401.56;;;12.75;55.81
50268;BME280;36153;50.960;6.220;2023-05-24T05:20:48;101398.31;;;12.89;55.99
50268;BME280;36153;50.960;6.220;2023-05-24T05:23:48;101399.34;;;13.00;55.68
50268;BME280;36153;50.960;6.220;2023-05-24T05:26:49;101403.91;;;13.13;55.83
50268;BME280;36153;50.960;6.220;2023-05-24T05:29:49;101404.19;;;13.30;55.50
50268;BME280;36153;50.960;6.220;2023-05-24T05:32:49;101410.41;;;13.39;55.54
50268;BME280;36153;50.960;6.220;2023-05-24T05:35:50;101404.31;;;13.38;55.24
50268;BME280;36153;50.960;6.220;2023-05-24T05:38:50;101414.78;;;13.38;55.81
50268;BME280;36153;50.960;6.220;2023-05-24T05:41:51;101412.84;;;13.28;54.13
50268;BME280;36153;50.960;6.220;2023-05-24T05:44:51;101401.94;;;13.57;55.03
50268;BME280;36153;50.960;6.220;2023-05-24T05:47:51;101408.28;;;13.74;55.35
50268;BME280;36153;50.960;6.220;2023-05-24T05:50:52;101413.81;;;13.96;55.38
50268;BME280;36153;50.960;6.220;2023-05-24T05:53:52;101408.66;;;14.05;54.63
50268;BME280;36153;50.960;6.220;2023-05-24T05:56:53;101408.63;;;14.02;54.22
50268;BME280;36153;50.960;6.220;2023-05-24T05:59:53;101406.28;;;14.25;54.31
50268;BME280;36153;50.960;6.220;2023-05-24T06:02:53;101405.59;;;14.43;53.77
50268;BME280;36153;50.960;6.220;2023-05-24T06:05:54;101403.13;;;14.59;53.66
50268;BME280;36153;50.960;6.220;2023-05-24T06:08:54;101405.13;;;14.84;53.69
50268;BME280;36153;50.960;6.220;2023-05-24T06:11:55;101407.94;;;15.12;51.86
50268;BME280;36153;50.960;6.220;2023-05-24T06:14:55;101416.88;;;15.39;52.38
50268;BME280;36153;50.960;6.220;2023-05-24T06:17:56;101417.06;;;15.72;51.48
50268;BME280;36153;50.960;6.220;2023-05-24T06:20:56;101417.91;;;15.67;51.70
50268;BME280;36153;50.960;6.220;2023-05-24T06:23:57;101415.53;;;16.21;51.36
50268;BME280;36153;50.960;6.220;2023-05-24T06:26:58;101417.34;;;16.58;50.00
50268;BME280;36153;50.960;6.220;2023-05-24T06:29:59;101422.59;;;16.66;49.46
50268;BME280;36153;50.960;6.220;2023-05-24T06:32:59;101416.47;;;16.64;48.92
50268;BME280;36153;50.960;6.220;2023-05-24T06:36:00;101413.84;;;16.51;49.21
50268;BME280;36153;50.960;6.220;2023-05-24T06:39:01;101412.13;;;16.83;48.78
50268;BME280;36153;50.960;6.220;2023-05-24T06:42:02;101413.88;;;16.76;48.34
50268;BME280;36153;50.960;6.220;2023-05-24T06:45:02;101417.41;;;17.23;48.54
50268;BME280;36153;50.960;6.220;2023-05-24T06:48:03;101420.88;;;17.27;47.12
50268;BME280;36153;50.960;6.220;2023-05-24T06:51:03;101426.16;;;17.33;47.64
50268;BME280;36153;50.960;6.220;2023-05-24T06:54:03;101417.34;;;17.46;46.52
50268;BME280;36153;50.960;6.220;2023-05-24T06:57:04;101418.16;;;17.67;46.96
50268;BME280;36153;50.960;6.220;2023-05-24T07:00:05;101418.19;;;17.54;47.32
50268;BME280;36153;50.960;6.220;2023-05-24T07:03:12;101416.28;;;18.04;46.67
50268;BME280;36153;50.960;6.220;2023-05-24T07:06:13;101418.97;;;17.94;46.36
50268;BME280;36153;50.960;6.220;2023-05-24T07:09:14;101415.22;;;18.38;45.04
50268;BME280;36153;50.960;6.220;2023-05-24T07:12:15;101425.56;;;18.66;44.35
50268;BME280;36153;50.960;6.220;2023-05-24T07:15:15;101439.84;;;18.34;43.94
50268;BME280;36153;50.960;6.220;2023-05-24T07:18:15;101441.66;;;18.24;44.89
50268;BME280;36153;50.960;6.220;2023-05-24T07:21:16;101448.63;;;18.34;44.37
50268;BME280;36153;50.960;6.220;2023-05-24T07:24:16;101464.09;;;18.90;44.31
50268;BME280;36153;50.960;6.220;2023-05-24T07:27:16;101455.03;;;19.26;42.78
50268;BME280;36153;50.960;6.220;2023-05-24T07:30:17;101444.97;;;19.64;42.68
50268;BME280;36153;50.960;6.220;2023-05-24T07:33:18;101443.91;;;19.82;42.29
50268;BME280;36153;50.960;6.220;2023-05-24T07:36:18;101448.34;;;18.79;43.91
50268;BME280;36153;50.960;6.220;2023-05-24T07:39:18;101446.63;;;18.70;42.54
50268;BME280;36153;50.960;6.220;2023-05-24T07:42:19;101441.84;;;19.22;42.77
50268;BME280;36153;50.960;6.220;2023-05-24T07:45:20;101436.41;;;19.40;42.65
50268;BME280;36153;50.960;6.220;2023-05-24T07:48:21;101433.41;;;19.73;41.48
50268;BME280;36153;50.960;6.220;2023-05-24T07:51:22;101431.22;;;20.09;40.69
50268;BME280;36153;50.960;6.220;2023-05-24T07:54:22;101433.28;;;19.85;40.99
50268;BME280;36153;50.960;6.220;2023-05-24T07:57:25;101433.81;;;20.12;41.43
50268;BME280;36153;50.960;6.220;2023-05-24T08:00:26;101434.13;;;19.90;41.26
50268;BME280;36153;50.960;6.220;2023-05-24T08:03:26;101431.63;;;19.75;40.87
50268;BME280;36153;50.960;6.220;2023-05-24T08:06:30;101437.81;;;19.74;41.00
50268;BME280;36153;50.960;6.220;2023-05-24T08:09:34;101441.91;;;20.00;41.44
50268;BME280;36153;50.960;6.220;2023-05-24T08:12:35;101432.25;;;20.59;40.28
50268;BME280;36153;50.960;6.220;2023-05-24T08:15:35;101437.91;;;20.35;39.65
50268;BME280;36153;50.960;6.220;2023-05-24T08:18:36;101440.81;;;20.16;40.43
50268;BME280;36153;50.960;6.220;2023-05-24T08:21:39;101440.63;;;19.55;40.80
50268;BME280;36153;50.960;6.220;2023-05-24T08:24:47;101440.63;;;19.55;39.99
50268;BME280;36153;50.960;6.220;2023-05-24T08:27:48;101437.91;;;20.38;39.35
50268;BME280;36153;50.960;6.220;2023-05-24T08:30:51;101433.41;;;21.01;38.41
50268;BME280;36153;50.960;6.220;2023-05-24T08:33:52;101432.53;;;20.98;36.71
50268;BME280;36153;50.960;6.220;2023-05-24T08:36:53;101433.13;;;21.16;37.67
50268;BME280;36153;50.960;6.220;2023-05-24T08:39:54;101439.88;;;20.83;37.06
50268;BME280;36153;50.960;6.220;2023-05-24T08:42:59;101426.97;;;21.14;38.87
50268;BME280;36153;50.960;6.220;2023-05-24T08:46:01;101412.38;;;21.88;37.10
50268;BME280;36153;50.960;6.220;2023-05-24T08:49:05;101422.63;;;22.04;36.33
50268;BME280;36153;50.960;6.220;2023-05-24T08:52:08;101420.31;;;20.91;37.68
50268;BME280;36153;50.960;6.220;2023-05-24T08:55:10;101417.38;;;21.08;36.06
50268;BME280;36153;50.960;6.220;2023-05-24T08:58:11;101416.66;;;21.48;36.23
50268;BME280;36153;50.960;6.220;2023-05-24T09:01:13;101424.00;;;21.34;36.58
50268;BME280;36153;50.960;6.220;2023-05-24T09:04:13;101416.22;;;20.72;37.28
50268;BME280;36153;50.960;6.220;2023-05-24T09:07:18;101414.84;;;20.44;36.95
50268;BME280;36153;50.960;6.220;2023-05-24T09:10:19;101413.31;;;20.89;36.78
50268;BME280;36153;50.960;6.220;2023-05-24T09:13:23;101404.69;;;21.74;35.27
50268;BME280;36153;50.960;6.220;2023-05-24T09:16:24;101409.94;;;22.18;35.90
50268;BME280;36153;50.960;6.220;2023-05-24T09:19:24;101408.88;;;22.25;35.24
50268;BME280;36153;50.960;6.220;2023-05-24T09:22:28;101411.31;;;21.53;35.94
50268;BME280;36153;50.960;6.220;2023-05-24T09:25:29;101415.78;;;21.48;36.31
50268;BME280;36153;50.960;6.220;2023-05-24T09:28:31;101413.72;;;21.17;36.72
50268;BME280;36153;50.960;6.220;2023-05-24T09:31:32;101407.75;;;21.04;36.41
50268;BME280;36153;50.960;6.220;2023-05-24T09:34:41;101400.59;;;21.09;36.32
50268;BME280;36153;50.960;6.220;2023-05-24T09:37:41;101398.81;;;21.58;36.10
50268;BME280;36153;50.960;6.220;2023-05-24T09:40:42;101408.91;;;21.39;37.08
50268;BME280;36153;50.960;6.220;2023-05-24T09:43:47;101406.25;;;21.39;36.25
50268;BME280;36153;50.960;6.220;2023-05-24T09:46:48;101395.78;;;21.31;36.46
50268;BME280;36153;50.960;6.220;2023-05-24T09:49:50;101394.44;;;21.57;36.88
50268;BME280;36153;50.960;6.220;2023-05-24T09:52:51;101390.97;;;21.96;36.18
50268;BME280;36153;50.960;6.220;2023-05-24T09:55:53;101388.88;;;22.87;35.07
50268;BME280;36153;50.960;6.220;2023-05-24T09:58:54;101385.91;;;23.32;33.70
50268;BME280;36153;50.960;6.220;2023-05-24T10:05:06;101372.09;;;23.52;33.93
50268;BME280;36153;50.960;6.220;2023-05-24T10:08:09;101378.44;;;23.47;34.43
50268;BME280;36153;50.960;6.220;2023-05-24T10:11:10;101378.09;;;23.59;33.62
50268;BME280;36153;50.960;6.220;2023-05-24T10:14:11;101378.06;;;22.93;34.17
50268;BME280;36153;50.960;6.220;2023-05-24T10:17:11;101380.63;;;23.95;33.82
50268;BME280;36153;50.960;6.220;2023-05-24T10:20:12;101379.75;;;24.23;33.67
50268;BME280;36153;50.960;6.220;2023-05-24T10:23:15;101382.00;;;23.77;32.28
50268;BME280;36153;50.960;6.220;2023-05-24T10:26:18;101380.53;;;23.35;34.23
50268;BME280;36153;50.960;6.220;2023-05-24T10:29:35;101380.88;;;23.23;34.23
50268;BME280;36153;50.960;6.220;2023-05-24T10:32:42;101379.25;;;23.17;33.93
50268;BME280;36153;50.960;6.220;2023-05-24T10:35:44;101379.97;;;23.23;33.52
50268;BME280;36153;50.960;6.220;2023-05-24T10:38:45;101378.16;;;23.56;33.13
50268;BME280;36153;50.960;6.220;2023-05-24T10:41:46;101378.25;;;23.84;33.48
50268;BME280;36153;50.960;6.220;2023-05-24T10:44:46;101370.56;;;23.74;33.68
50268;BME280;36153;50.960;6.220;2023-05-24T10:47:46;101374.84;;;23.79;33.75
50268;BME280;36153;50.960;6.220;2023-05-24T10:50:47;101380.63;;;23.64;33.91
50268;BME280;36153;50.960;6.220;2023-05-24T10:53:48;101376.50;;;23.52;33.49
50268;BME280;36153;50.960;6.220;2023-05-24T10:56:50;101379.44;;;22.75;34.28
50268;BME280;36153;50.960;6.220;2023-05-24T10:59:51;101384.00;;;22.70;35.45
50268;BME280;36153;50.960;6.220;2023-05-24T11:03:17;101374.22;;;22.35;35.50
50268;BME280;36153;50.960;6.220;2023-05-24T11:06:49;101377.41;;;21.69;36.35
50268;BME280;36153;50.960;6.220;2023-05-24T11:09:49;101385.25;;;21.28;36.79
50268;BME280;36153;50.960;6.220;2023-05-24T11:12:59;101383.66;;;21.18;37.68
50268;BME280;36153;50.960;6.220;2023-05-24T11:16:01;101384.28;;;20.84;37.73
50268;BME280;36153;50.960;6.220;2023-05-24T11:19:20;101375.97;;;21.04;38.06
50268;BME280;36153;50.960;6.220;2023-05-24T11:22:23;101382.16;;;21.05;37.92
50268;BME280;36153;50.960;6.220;2023-05-24T11:25:25;101376.84;;;21.06;37.99
50268;BME280;36153;50.960;6.220;2023-05-24T11:28:27;101375.88;;;21.10;38.29
50268;BME280;36153;50.960;6.220;2023-05-24T11:31:27;101369.38;;;21.28;37.50
50268;BME280;36153;50.960;6.220;2023-05-24T11:34:27;101373.72;;;21.33;37.03
50268;BME280;36153;50.960;6.220;2023-05-24T11:37:28;101366.72;;;21.74;36.86
50268;BME280;36153;50.960;6.220;2023-05-24T11:40:29;101362.91;;;21.87;36.08
50268;BME280;36153;50.960;6.220;2023-05-24T11:43:30;101365.63;;;22.23;35.93
50268;BME280;36153;50.960;6.220;2023-05-24T11:46:31;101365.47;;;23.01;34.91
50268;BME280;36153;50.960;6.220;2023-05-24T11:49:32;101360.91;;;24.29;32.71
50268;BME280;36153;50.960;6.220;2023-05-24T11:52:32;101358.53;;;25.51;31.25
50268;BME280;36153;50.960;6.220;2023-05-24T11:55:37;101356.13;;;24.41;32.29
50268;BME280;36153;50.960;6.220;2023-05-24T11:58:49;101346.09;;;24.22;32.51
50268;BME280;36153;50.960;6.220;2023-05-24T12:05:06;101344.06;;;25.82;30.30
50268;BME280;36153;50.960;6.220;2023-05-24T12:08:10;101335.69;;;26.57;29.23
50268;BME280;36153;50.960;6.220;2023-05-24T12:11:11;101335.00;;;26.74;29.46
50268;BME280;36153;50.960;6.220;2023-05-24T12:14:21;101339.78;;;26.44;28.71
50268;BME280;36153;50.960;6.220;2023-05-24T12:17:22;101336.16;;;25.06;31.36
50268;BME280;36153;50.960;6.220;2023-05-24T12:20:23;101333.16;;;23.81;32.32
50268;BME280;36153;50.960;6.220;2023-05-24T12:23:25;101339.41;;;23.17;33.64
50268;BME280;36153;50.960;6.220;2023-05-24T12:26:27;101338.06;;;23.01;34.26
50268;BME280;36153;50.960;6.220;2023-05-24T12:29:32;101333.78;;;22.95;33.83
50268;BME280;36153;50.960;6.220;2023-05-24T12:32:33;101331.63;;;23.73;33.10
50268;BME280;36153;50.960;6.220;2023-05-24T12:35:33;101330.81;;;25.79;30.65
50268;BME280;36153;50.960;6.220;2023-05-24T12:38:34;101329.81;;;25.35;29.91
50268;BME280;36153;50.960;6.220;2023-05-24T12:41:34;101323.63;;;25.35;30.05
50268;BME280;36153;50.960;6.220;2023-05-24T12:44:36;101317.31;;;25.61;29.88
50268;BME280;36153;50.960;6.220;2023-05-24T12:47:36;101316.97;;;25.69;29.70
50268;BME280;36153;50.960;6.220;2023-05-24T12:50:37;101321.84;;;24.58;31.23
50268;BME280;36153;50.960;6.220;2023-05-24T12:53:37;101314.63;;;24.35;31.13
50268;BME280;36153;50.960;6.220;2023-05-24T12:56:38;101308.44;;;24.34;31.73
50268;BME280;36153;50.960;6.220;2023-05-24T12:59:38;101314.03;;;25.29;32.45
50268;BME280;36153;50.960;6.220;2023-05-24T13:02:39;101315.00;;;24.51;31.18
50268;BME280;36153;50.960;6.220;2023-05-24T13:05:39;101314.38;;;23.56;32.35
50268;BME280;36153;50.960;6.220;2023-05-24T13:08:40;101325.13;;;22.54;33.45
50268;BME280;36153;50.960;6.220;2023-05-24T13:11:41;101320.06;;;22.06;34.00
50268;BME280;36153;50.960;6.220;2023-05-24T13:14:41;101319.19;;;22.05;34.91
50268;BME280;36153;50.960;6.220;2023-05-24T13:17:43;101324.06;;;21.42;35.27
50268;BME280;36153;50.960;6.220;2023-05-24T13:20:44;101320.44;;;21.89;34.53
50268;BME280;36153;50.960;6.220;2023-05-24T13:23:44;101320.00;;;22.09;35.39
50268;BME280;36153;50.960;6.220;2023-05-24T13:26:45;101320.72;;;22.15;34.86
50268;BME280;36153;50.960;6.220;2023-05-24T13:29:46;101322.63;;;22.10;34.94
50268;BME280;36153;50.960;6.220;2023-05-24T13:32:46;101320.03;;;22.45;34.62
50268;BME280;36153;50.960;6.220;2023-05-24T13:35:47;101317.63;;;22.36;34.39
50268;BME280;36153;50.960;6.220;2023-05-24T13:38:47;101317.13;;;22.18;34.50
50268;BME280;36153;50.960;6.220;2023-05-24T13:41:48;101310.47;;;22.00;34.84
50268;BME280;36153;50.960;6.220;2023-05-24T13:44:48;101305.94;;;22.43;34.29
50268;BME280;36153;50.960;6.220;2023-05-24T13:47:49;101308.69;;;22.74;33.85
50268;BME280;36153;50.960;6.220;2023-05-24T13:50:50;101306.34;;;22.62;33.72
50268;BME280;36153;50.960;6.220;2023-05-24T13:53:51;101306.09;;;23.04;34.50
50268;BME280;36153;50.960;6.220;2023-05-24T13:56:51;101308.41;;;23.18;33.40
50268;BME280;36153;50.960;6.220;2023-05-24T13:59:57;101310.34;;;22.78;33.68
50268;BME280;36153;50.960;6.220;2023-05-24T14:02:58;101303.72;;;22.24;33.91
50268;BME280;36153;50.960;6.220;2023-05-24T14:05:58;101310.25;;;22.09;34.22
50268;BME280;36153;50.960;6.220;2023-05-24T14:08:59;101300.59;;;22.07;34.28
50268;BME280;36153;50.960;6.220;2023-05-24T14:12:00;101302.84;;;22.24;33.89
50268;BME280;36153;50.960;6.220;2023-05-24T14:15:02;101309.72;;;22.34;33.88
50268;BME280;36153;50.960;6.220;2023-05-24T14:18:04;101307.88;;;22.36;33.63
50268;BME280;36153;50.960;6.220;2023-05-24T14:21:06;101301.63;;;22.01;33.23
50268;BME280;36153;50.960;6.220;2023-05-24T14:24:07;101305.16;;;22.00;34.68
50268;BME280;36153;50.960;6.220;2023-05-24T14:27:08;101310.28;;;22.47;33.85
50268;BME280;36153;50.960;6.220;2023-05-24T14:30:09;101313.38;;;22.64;33.69
50268;BME280;36153;50.960;6.220;2023-05-24T14:33:09;101308.97;;;22.63;33.32
50268;BME280;36153;50.960;6.220;2023-05-24T14:36:10;101313.06;;;22.42;33.48
50268;BME280;36153;50.960;6.220;2023-05-24T14:39:11;101308.88;;;22.66;33.60
50268;BME280;36153;50.960;6.220;2023-05-24T14:42:11;101308.50;;;23.15;33.04
50268;BME280;36153;50.960;6.220;2023-05-24T14:45:12;101307.25;;;23.58;32.65
50268;BME280;36153;50.960;6.220;2023-05-24T14:48:13;101307.34;;;23.55;32.22
50268;BME280;36153;50.960;6.220;2023-05-24T14:51:15;101306.41;;;23.26;32.73
50268;BME280;36153;50.960;6.220;2023-05-24T14:54:16;101306.41;;;23.86;32.31
50268;BME280;36153;50.960;6.220;2023-05-24T14:57:16;101304.66;;;23.57;32.66
50268;BME280;36153;50.960;6.220;2023-05-24T15:00:17;101303.94;;;23.50;32.56
50268;BME280;36153;50.960;6.220;2023-05-24T15:03:17;101303.75;;;23.26;32.93
50268;BME280;36153;50.960;6.220;2023-05-24T15:06:17;101307.25;;;22.95;33.35
50268;BME280;36153;50.960;6.220;2023-05-24T15:09:18;101300.28;;;22.91;33.43
50268;BME280;36153;50.960;6.220;2023-05-24T15:12:19;101302.91;;;23.24;33.08
50268;BME280;36153;50.960;6.220;2023-05-24T15:15:21;101301.69;;;23.36;32.19
50268;BME280;36153;50.960;6.220;2023-05-24T15:18:21;101304.66;;;23.85;31.55
50268;BME280;36153;50.960;6.220;2023-05-24T15:21:24;101299.69;;;24.31;31.75
50268;BME280;36153;50.960;6.220;2023-05-24T15:24:24;101301.09;;;23.86;30.80
50268;BME280;36153;50.960;6.220;2023-05-24T15:27:27;101297.06;;;23.73;32.06
50268;BME280;36153;50.960;6.220;2023-05-24T15:30:28;101302.38;;;23.11;32.27
50268;BME280;36153;50.960;6.220;2023-05-24T15:33:29;101301.09;;;23.26;32.93
50268;BME280;36153;50.960;6.220;2023-05-24T15:36:29;101297.44;;;23.90;32.19
50268;BME280;36153;50.960;6.220;2023-05-24T15:39:30;101298.03;;;24.00;31.47
50268;BME280;36153;50.960;6.220;2023-05-24T15:42:30;101294.81;;;23.59;32.25
50268;BME280;36153;50.960;6.220;2023-05-24T15:45:31;101289.38;;;23.63;32.04
50268;BME280;36153;50.960;6.220;2023-05-24T15:48:32;101290.09;;;23.98;32.00
50268;BME280;36153;50.960;6.220;2023-05-24T15:51:32;101289.31;;;25.00;30.52
50268;BME280;36153;50.960;6.220;2023-05-24T15:54:32;101285.03;;;26.13;28.33
50268;BME280;36153;50.960;6.220;2023-05-24T15:57:33;101279.16;;;26.68;28.55
50268;BME280;36153;50.960;6.220;2023-05-24T16:00:33;101279.41;;;27.62;27.37
50268;BME280;36153;50.960;6.220;2023-05-24T16:03:34;101277.28;;;28.24;26.43